sensor_id;sensor_type;location;lat;lon;timestamp;pressure;altitude;pressure_sealevel;temperature;humidity
35694;BME280;21812;55.536;37.664;2023-03-30T00:02:26;98932.75;;;14.48;54.98
35694;BME280;21812;55.536;37.664;2023-03-30T00:04:56;98914.78;;;14.72;54.78
35694;BME280;21812;55.536;37.664;2023-03-30T00:07:29;98925.63;;;14.89;53.97
35694;BME280;21812;55.536;37.664;2023-03-30T00:09:55;98927.19;;;14.61;53.44
35694;BME280;21812;55.536;37.664;2023-03-30T00:12:21;98926.84;;;14.22;54.70
35694;BME280;21812;55.536;37.664;2023-03-30T00:14:47;98935.47;;;14.13;54.49
35694;BME280;21812;55.536;37.664;2023-03-30T00:17:13;98927.75;;;14.16;55.80
35694;BME280;21812;55.536;37.664;2023-03-30T00:19:39;98932.19;;;14.34;55.82
35694;BME280;21812;55.536;37.664;2023-03-30T00:22:05;98928.34;;;14.30;55.44
35694;BME280;21812;55.536;37.664;2023-03-30T00:24:32;98927.50;;;13.82;55.00
35694;BME280;21812;55.536;37.664;2023-03-30T00:26:58;98931.81;;;13.53;56.62
35694;BME280;21812;55.536;37.664;2023-03-30T00:29:25;98930.81;;;12.68;56.85
35694;BME280;21812;55.536;37.664;2023-03-30T00:31:51;98929.69;;;12.14;59.05
35694;BME280;21812;55.536;37.664;2023-03-30T00:34:17;98926.59;;;11.92;60.11
35694;BME280;21812;55.536;37.664;2023-03-30T00:36:43;98931.59;;;11.50;60.73
35694;BME280;21812;55.536;37.664;2023-03-30T00:39:11;98936.53;;;11.08;62.20
35694;BME280;21812;55.536;37.664;2023-03-30T00:41:37;98941.00;;;10.69;63.66
35694;BME280;21812;55.536;37.664;2023-03-30T00:47:11;98941.59;;;10.78;65.34
35694;BME280;21812;55.536;37.664;2023-03-30T00:49:37;98943.06;;;10.67;64.35
35694;BME280;21812;55.536;37.664;2023-03-30T00:52:03;98941.88;;;10.23;65.57
35694;BME280;21812;55.536;37.664;2023-03-30T00:54:29;98945.56;;;9.95;66.54
35694;BME280;21812;55.536;37.664;2023-03-30T00:56:55;98931.81;;;9.78;67.31
35694;BME280;21812;55.536;37.664;2023-03-30T00:59:21;98947.81;;;9.71;67.52
35694;BME280;21812;55.536;37.664;2023-03-30T01:01:47;98948.59;;;9.65;68.24
35694;BME280;21812;55.536;37.664;2023-03-30T01:04:15;98943.25;;;9.52;67.71
35694;BME280;21812;55.536;37.664;2023-03-30T01:06:45;98941.16;;;9.27;68.72
35694;BME280;21812;55.536;37.664;2023-03-30T01:09:14;98944.59;;;9.14;68.97
35694;BME280;21812;55.536;37.664;2023-03-30T01:11:41;98949.00;;;8.94;69.45
35694;BME280;21812;55.536;37.664;2023-03-30T01:14:09;98945.00;;;8.70;70.58
35694;BME280;21812;55.536;37.664;2023-03-30T01:41:22;98977.19;;;8.75;70.46
35694;BME280;21812;55.536;37.664;2023-03-30T01:44:15;98950.59;;;8.47;71.13
35694;BME280;21812;55.536;37.664;2023-03-30T01:46:47;98984.47;;;8.59;71.88
35694;BME280;21812;55.536;37.664;2023-03-30T01:49:21;98959.44;;;8.89;72.42
35694;BME280;21812;55.536;37.664;2023-03-30T01:52:00;98996.94;;;9.42;71.24
35694;BME280;21812;55.536;37.664;2023-03-30T01:54:31;98981.63;;;9.64;68.26
35694;BME280;21812;55.536;37.664;2023-03-30T01:57:14;98993.69;;;9.53;67.07
35694;BME280;21812;55.536;37.664;2023-03-30T01:59:54;98977.50;;;8.93;68.57
35694;BME280;21812;55.536;37.664;2023-03-30T02:02:26;98966.03;;;8.58;69.46
35694;BME280;21812;55.536;37.664;2023-03-30T02:04:56;98996.09;;;8.58;70.35
35694;BME280;21812;55.536;37.664;2023-03-30T02:07:28;98989.69;;;8.46;71.08
35694;BME280;21812;55.536;37.664;2023-03-30T02:09:59;98989.31;;;8.49;69.92
35694;BME280;21812;55.536;37.664;2023-03-30T02:12:29;99021.88;;;8.51;69.66
35694;BME280;21812;55.536;37.664;2023-03-30T02:14:59;99021.13;;;8.36;69.56
35694;BME280;21812;55.536;37.664;2023-03-30T02:17:28;98990.25;;;7.92;70.08
35694;BME280;21812;55.536;37.664;2023-03-30T02:19:56;99028.75;;;7.96;70.51
35694;BME280;21812;55.536;37.664;2023-03-30T02:22:23;99021.38;;;7.76;70.93
35694;BME280;21812;55.536;37.664;2023-03-30T02:24:53;99027.47;;;7.70;71.46
35694;BME280;21812;55.536;37.664;2023-03-30T02:27:21;99030.56;;;7.74;71.54
35694;BME280;21812;55.536;37.664;2023-03-30T02:29:48;99031.78;;;7.71;70.94
35694;BME280;21812;55.536;37.664;2023-03-30T02:32:22;99023.75;;;7.50;71.28
35694;BME280;21812;55.536;37.664;2023-03-30T02:37:50;99030.88;;;7.28;71.86
35694;BME280;21812;55.536;37.664;2023-03-30T02:49:12;99025.38;;;7.14;73.29
35694;BME280;21812;55.536;37.664;2023-03-30T02:51:48;99032.25;;;7.09;72.87
35694;BME280;21812;55.536;37.664;2023-03-30T03:00:47;99029.97;;;6.91;72.99
35694;BME280;21812;55.536;37.664;2023-03-30T03:03:42;99034.16;;;7.00;73.75
35694;BME280;21812;55.536;37.664;2023-03-30T03:06:08;99031.97;;;6.89;73.27
35694;BME280;21812;55.536;37.664;2023-03-30T03:08:40;99000.22;;;6.65;73.17
35694;BME280;21812;55.536;37.664;2023-03-30T03:11:09;99038.19;;;6.81;73.65
35694;BME280;21812;55.536;37.664;2023-03-30T03:13:36;99041.78;;;6.88;73.75
35694;BME280;21812;55.536;37.664;2023-03-30T03:16:03;99028.78;;;6.93;74.53
35694;BME280;21812;55.536;37.664;2023-03-30T03:18:30;99042.41;;;6.90;73.49
35694;BME280;21812;55.536;37.664;2023-03-30T03:20:57;99045.88;;;6.91;73.34
35694;BME280;21812;55.536;37.664;2023-03-30T03:23:23;99046.91;;;6.90;73.26
35694;BME280;21812;55.536;37.664;2023-03-30T03:25:52;99045.88;;;6.91;72.84
35694;BME280;21812;55.536;37.664;2023-03-30T03:28:18;99050.72;;;7.02;72.44
35694;BME280;21812;55.536;37.664;2023-03-30T03:30:51;99053.09;;;7.12;71.60
35694;BME280;21812;55.536;37.664;2023-03-30T03:33:21;99050.91;;;7.30;72.44
35694;BME280;21812;55.536;37.664;2023-03-30T03:36:00;99058.84;;;7.60;70.96
35694;BME280;21812;55.536;37.664;2023-03-30T03:38:27;99048.59;;;8.21;79.29
35694;BME280;21812;55.536;37.664;2023-03-30T03:40:57;99021.13;;;8.36;77.42
35694;BME280;21812;55.536;37.664;2023-03-30T03:43:24;99055.19;;;8.47;70.44
35694;BME280;21812;55.536;37.664;2023-03-30T03:45:51;99047.09;;;8.12;69.57
35694;BME280;21812;55.536;37.664;2023-03-30T03:48:20;99047.09;;;7.91;70.55
35694;BME280;21812;55.536;37.664;2023-03-30T03:50:49;99069.63;;;7.73;70.18
35694;BME280;21812;55.536;37.664;2023-03-30T03:53:15;99075.00;;;7.65;71.72
35694;BME280;21812;55.536;37.664;2023-03-30T03:55:42;99077.44;;;7.60;73.76
35694;BME280;21812;55.536;37.664;2023-03-30T03:58:08;99080.25;;;7.73;72.33
35694;BME280;21812;55.536;37.664;2023-03-30T04:00:34;99073.00;;;7.67;70.93
35694;BME280;21812;55.536;37.664;2023-03-30T04:03:00;99081.66;;;7.54;70.33
35694;BME280;21812;55.536;37.664;2023-03-30T04:05:26;99086.97;;;7.39;71.02
35694;BME280;21812;55.536;37.664;2023-03-30T04:07:52;99084.78;;;7.28;71.37
35694;BME280;21812;55.536;37.664;2023-03-30T04:10:19;99066.94;;;7.07;72.19
35694;BME280;21812;55.536;37.664;2023-03-30T04:13:14;99098.22;;;7.56;71.87
35694;BME280;21812;55.536;37.664;2023-03-30T04:16:01;99091.72;;;7.59;71.51
35694;BME280;21812;55.536;37.664;2023-03-30T04:18:56;99089.47;;;7.77;73.45
35694;BME280;21812;55.536;37.664;2023-03-30T04:21:46;99075.97;;;8.15;72.98
35694;BME280;21812;55.536;37.664;2023-03-30T04:24:32;99084.25;;;8.27;72.25
35694;BME280;21812;55.536;37.664;2023-03-30T04:27:05;99080.84;;;8.12;69.75
35694;BME280;21812;55.536;37.664;2023-03-30T04:29:51;99082.06;;;8.09;70.80
35694;BME280;21812;55.536;37.664;2023-03-30T04:32:37;99076.66;;;8.02;69.78
35694;BME280;21812;55.536;37.664;2023-03-30T04:35:21;99081.38;;;7.86;69.23
35694;BME280;21812;55.536;37.664;2023-03-30T04:37:59;99087.66;;;7.63;69.69
35694;BME280;21812;55.536;37.664;2023-03-30T04:40:56;99078.75;;;7.34;70.14
35694;BME280;21812;55.536;37.664;2023-03-30T04:43:41;99082.59;;;7.17;70.44
35694;BME280;21812;55.536;37.664;2023-03-30T04:46:25;99084.97;;;7.27;70.90
35694;BME280;21812;55.536;37.664;2023-03-30T04:49:14;99082.34;;;6.97;70.96
35694;BME280;21812;55.536;37.664;2023-03-30T04:52:18;99077.91;;;6.89;70.10
35694;BME280;21812;55.536;37.664;2023-03-30T04:55:03;99076.38;;;6.80;71.37
35694;BME280;21812;55.536;37.664;2023-03-30T04:58:01;99077.44;;;6.71;71.68
35694;BME280;21812;55.536;37.664;2023-03-30T05:00:42;99078.44;;;6.70;71.19
35694;BME280;21812;55.536;37.664;2023-03-30T05:03:28;99072.50;;;6.68;71.58
35694;BME280;21812;55.536;37.664;2023-03-30T05:06:23;99076.63;;;6.70;71.08
35694;BME280;21812;55.536;37.664;2023-03-30T05:09:10;99080.28;;;6.69;70.85
35694;BME280;21812;55.536;37.664;2023-03-30T05:12:02;99073.88;;;6.63;70.47
35694;BME280;21812;55.536;37.664;2023-03-30T05:14:49;99082.16;;;6.60;70.86
35694;BME280;21812;55.536;37.664;2023-03-30T05:17:40;99083.06;;;6.53;70.84
35694;BME280;21812;55.536;37.664;2023-03-30T05:20:21;99085.84;;;6.59;70.58
35694;BME280;21812;55.536;37.664;2023-03-30T05:23:20;99091.63;;;6.63;70.47
35694;BME280;21812;55.536;37.664;2023-03-30T05:26:21;99109.00;;;6.65;69.86
35694;BME280;21812;55.536;37.664;2023-03-30T05:29:08;99102.09;;;6.56;70.06
35694;BME280;21812;55.536;37.664;2023-03-30T05:31:53;99109.81;;;6.51;70.31
35694;BME280;21812;55.536;37.664;2023-03-30T05:34:37;99112.25;;;6.53;70.16
35694;BME280;21812;55.536;37.664;2023-03-30T05:37:23;99110.72;;;6.58;70.01
35694;BME280;21812;55.536;37.664;2023-03-30T05:40:20;99114.59;;;6.71;69.63
35694;BME280;21812;55.536;37.664;2023-03-30T05:43:16;99115.53;;;6.78;68.98
35694;BME280;21812;55.536;37.664;2023-03-30T05:46:11;99112.16;;;6.84;69.10
35694;BME280;21812;55.536;37.664;2023-03-30T05:48:55;99119.50;;;6.97;68.48
35694;BME280;21812;55.536;37.664;2023-03-30T05:51:38;99125.06;;;7.02;68.57
35694;BME280;21812;55.536;37.664;2023-03-30T05:54:15;99118.94;;;7.01;67.99
35694;BME280;21812;55.536;37.664;2023-03-30T05:56:44;99119.28;;;6.98;68.38
35694;BME280;21812;55.536;37.664;2023-03-30T05:59:36;99130.56;;;7.00;68.56
35694;BME280;21812;55.536;37.664;2023-03-30T06:02:38;99131.41;;;7.01;67.91
35694;BME280;21812;55.536;37.664;2023-03-30T06:05:10;99130.19;;;7.03;67.99
35694;BME280;21812;55.536;37.664;2023-03-30T06:07:36;99138.34;;;7.02;67.97
35694;BME280;21812;55.536;37.664;2023-03-30T06:10:03;99135.50;;;7.03;68.41
35694;BME280;21812;55.536;37.664;2023-03-30T06:12:31;99136.44;;;7.11;68.11
35694;BME280;21812;55.536;37.664;2023-03-30T06:14:57;99148.97;;;7.17;67.52
35694;BME280;21812;55.536;37.664;2023-03-30T06:17:44;99135.34;;;7.20;66.56
35694;BME280;21812;55.536;37.664;2023-03-30T06:20:10;99135.41;;;7.12;66.25
35694;BME280;21812;55.536;37.664;2023-03-30T06:22:39;99135.69;;;7.02;66.29
35694;BME280;21812;55.536;37.664;2023-03-30T06:25:13;99136.16;;;7.05;66.03
35694;BME280;21812;55.536;37.664;2023-03-30T06:27:41;99149.63;;;7.19;65.98
35694;BME280;21812;55.536;37.664;2023-03-30T06:30:07;99135.81;;;7.23;66.05
35694;BME280;21812;55.536;37.664;2023-03-30T06:32:39;99134.97;;;7.23;64.88
35694;BME280;21812;55.536;37.664;2023-03-30T06:35:24;99123.81;;;7.13;65.62
35694;BME280;21812;55.536;37.664;2023-03-30T06:37:51;99137.09;;;7.28;65.99
35694;BME280;21812;55.536;37.664;2023-03-30T06:40:18;99130.88;;;7.35;65.25
35694;BME280;21812;55.536;37.664;2023-03-30T06:42:47;99136.72;;;7.46;65.57
35694;BME280;21812;55.536;37.664;2023-03-30T06:45:20;99140.34;;;7.59;64.52
35694;BME280;21812;55.536;37.664;2023-03-30T06:47:46;99138.28;;;7.55;64.26
35694;BME280;21812;55.536;37.664;2023-03-30T06:50:13;99127.00;;;7.53;64.89
35694;BME280;21812;55.536;37.664;2023-03-30T06:52:51;99137.53;;;7.61;64.51
35694;BME280;21812;55.536;37.664;2023-03-30T06:55:18;99132.03;;;7.62;63.58
35694;BME280;21812;55.536;37.664;2023-03-30T06:57:45;99138.25;;;7.70;62.08
35694;BME280;21812;55.536;37.664;2023-03-30T07:00:11;99138.91;;;7.72;61.95
35694;BME280;21812;55.536;37.664;2023-03-30T07:02:42;99132.81;;;7.78;61.99
35694;BME280;21812;55.536;37.664;2023-03-30T07:05:16;99133.63;;;7.93;61.08
35694;BME280;21812;55.536;37.664;2023-03-30T07:08:06;99132.31;;;8.04;61.00
35694;BME280;21812;55.536;37.664;2023-03-30T07:10:32;99135.09;;;7.96;61.35
35694;BME280;21812;55.536;37.664;2023-03-30T07:13:01;99127.00;;;8.04;61.02
35694;BME280;21812;55.536;37.664;2023-03-30T07:15:28;99145.94;;;8.16;59.51
35694;BME280;21812;55.536;37.664;2023-03-30T07:17:55;99136.09;;;8.16;59.28
35694;BME280;21812;55.536;37.664;2023-03-30T07:20:21;99137.19;;;8.00;59.67
35694;BME280;21812;55.536;37.664;2023-03-30T07:23:16;99129.88;;;7.88;59.75
35694;BME280;21812;55.536;37.664;2023-03-30T07:25:44;99134.09;;;7.82;60.28
35694;BME280;21812;55.536;37.664;2023-03-30T07:28:30;99137.97;;;7.79;61.24
35694;BME280;21812;55.536;37.664;2023-03-30T07:31:07;99129.22;;;7.86;59.75
35694;BME280;21812;55.536;37.664;2023-03-30T07:33:35;99135.31;;;7.79;59.70
35694;BME280;21812;55.536;37.664;2023-03-30T07:36:03;99136.50;;;7.77;59.62
35694;BME280;21812;55.536;37.664;2023-03-30T07:38:32;99139.72;;;7.72;60.28
35694;BME280;21812;55.536;37.664;2023-03-30T07:40:58;99137.31;;;7.77;60.27
35694;BME280;21812;55.536;37.664;2023-03-30T07:43:25;99135.13;;;7.81;60.27
35694;BME280;21812;55.536;37.664;2023-03-30T07:45:56;99142.25;;;7.80;59.70
35694;BME280;21812;55.536;37.664;2023-03-30T07:48:29;99145.03;;;7.72;59.76
35694;BME280;21812;55.536;37.664;2023-03-30T07:51:04;99145.41;;;7.69;59.48
35694;BME280;21812;55.536;37.664;2023-03-30T07:53:32;99142.84;;;7.61;59.21
35694;BME280;21812;55.536;37.664;2023-03-30T07:56:00;99148.59;;;7.64;58.88
35694;BME280;21812;55.536;37.664;2023-03-30T07:58:38;99154.28;;;7.76;59.10
35694;BME280;21812;55.536;37.664;2023-03-30T08:01:04;99153.38;;;7.69;60.04
35694;BME280;21812;55.536;37.664;2023-03-30T08:03:45;99150.28;;;7.66;60.15
35694;BME280;21812;55.536;37.664;2023-03-30T08:06:13;99151.53;;;7.70;59.80
35694;BME280;21812;55.536;37.664;2023-03-30T08:08:40;99153.63;;;7.74;59.42
35694;BME280;21812;55.536;37.664;2023-03-30T08:11:08;99156.41;;;7.66;59.21
35694;BME280;21812;55.536;37.664;2023-03-30T08:13:39;99154.03;;;7.56;59.14
35694;BME280;21812;55.536;37.664;2023-03-30T08:16:06;99152.53;;;7.54;59.35
35694;BME280;21812;55.536;37.664;2023-03-30T08:18:33;99165.38;;;7.65;58.68
35694;BME280;21812;55.536;37.664;2023-03-30T08:20:59;99156.13;;;7.76;58.84
35694;BME280;21812;55.536;37.664;2023-03-30T08:23:25;99159.03;;;7.81;58.44
35694;BME280;21812;55.536;37.664;2023-03-30T08:25:55;99150.88;;;7.82;57.59
35694;BME280;21812;55.536;37.664;2023-03-30T08:28:21;99159.56;;;7.91;57.29
35694;BME280;21812;55.536;37.664;2023-03-30T08:30:47;99158.34;;;7.94;57.74
35694;BME280;21812;55.536;37.664;2023-03-30T08:33:13;99158.91;;;8.04;57.52
35694;BME280;21812;55.536;37.664;2023-03-30T08:35:43;99157.88;;;8.05;57.55
35694;BME280;21812;55.536;37.664;2023-03-30T08:38:08;99159.34;;;8.08;56.88
35694;BME280;21812;55.536;37.664;2023-03-30T08:40:38;99161.84;;;8.09;56.39
35694;BME280;21812;55.536;37.664;2023-03-30T08:43:21;99156.13;;;8.12;57.17
35694;BME280;21812;55.536;37.664;2023-03-30T08:45:50;99154.97;;;8.00;56.31
35694;BME280;21812;55.536;37.664;2023-03-30T08:48:19;99159.25;;;8.01;55.92
35694;BME280;21812;55.536;37.664;2023-03-30T08:50:56;99120.50;;;7.92;56.77
35694;BME280;21812;55.536;37.664;2023-03-30T08:53:22;99147.16;;;8.13;56.16
35694;BME280;21812;55.536;37.664;2023-03-30T08:55:51;99120.25;;;7.87;56.61
35694;BME280;21812;55.536;37.664;2023-03-30T09:06:44;99146.44;;;7.90;58.60
35694;BME280;21812;55.536;37.664;2023-03-30T09:09:14;99117.53;;;7.65;59.16
35694;BME280;21812;55.536;37.664;2023-03-30T09:11:40;99147.38;;;7.82;58.68
35694;BME280;21812;55.536;37.664;2023-03-30T09:14:13;99154.19;;;7.85;59.21
35694;BME280;21812;55.536;37.664;2023-03-30T09:16:50;99160.22;;;7.78;58.88
35694;BME280;21812;55.536;37.664;2023-03-30T09:19:29;99129.31;;;7.56;59.02
35694;BME280;21812;55.536;37.664;2023-03-30T09:21:58;99133.13;;;7.38;59.27
35694;BME280;21812;55.536;37.664;2023-03-30T09:24:26;99168.03;;;7.65;59.32
35694;BME280;21812;55.536;37.664;2023-03-30T09:27:01;99178.00;;;7.63;59.46
35694;BME280;21812;55.536;37.664;2023-03-30T09:29:39;99169.78;;;7.58;59.51
35694;BME280;21812;55.536;37.664;2023-03-30T09:32:26;99186.09;;;7.55;59.42
35694;BME280;21812;55.536;37.664;2023-03-30T09:35:22;99185.97;;;7.48;59.23
35694;BME280;21812;55.536;37.664;2023-03-30T09:37:49;99187.09;;;7.39;59.68
35694;BME280;21812;55.536;37.664;2023-03-30T09:40:35;99188.03;;;7.31;60.36
35694;BME280;21812;55.536;37.664;2023-03-30T09:43:22;99161.25;;;7.03;61.24
35694;BME280;21812;55.536;37.664;2023-03-30T09:45:49;99205.72;;;7.16;60.89
35694;BME280;21812;55.536;37.664;2023-03-30T09:48:16;99201.91;;;7.18;61.00
35694;BME280;21812;55.536;37.664;2023-03-30T09:50:43;99178.75;;;7.12;61.05
35694;BME280;21812;55.536;37.664;2023-03-30T09:56:00;99196.25;;;7.36;60.75
35694;BME280;21812;55.536;37.664;2023-03-30T09:58:27;99210.28;;;7.45;60.86
35694;BME280;21812;55.536;37.664;2023-03-30T10:01:05;99178.50;;;7.37;60.80
35694;BME280;21812;55.536;37.664;2023-03-30T10:03:31;99199.56;;;7.53;60.39
35694;BME280;21812;55.536;37.664;2023-03-30T10:06:17;99191.47;;;7.61;60.63
35694;BME280;21812;55.536;37.664;2023-03-30T10:08:50;99188.94;;;7.68;60.39
35694;BME280;21812;55.536;37.664;2023-03-30T10:11:33;99203.50;;;7.72;59.85
35694;BME280;21812;55.536;37.664;2023-03-30T10:14:00;99208.34;;;7.69;59.75
35694;BME280;21812;55.536;37.664;2023-03-30T10:16:29;99215.13;;;7.56;60.74
35694;BME280;21812;55.536;37.664;2023-03-30T10:19:02;99175.28;;;7.41;60.25
35694;BME280;21812;55.536;37.664;2023-03-30T10:21:38;99169.78;;;7.28;61.13
35694;BME280;21812;55.536;37.664;2023-03-30T10:24:19;99205.25;;;7.50;60.87
35694;BME280;21812;55.536;37.664;2023-03-30T10:26:55;99200.94;;;7.64;61.24
35694;BME280;21812;55.536;37.664;2023-03-30T10:29:24;99183.63;;;7.23;61.81
35694;BME280;21812;55.536;37.664;2023-03-30T10:32:20;99220.31;;;7.20;62.14
35694;BME280;21812;55.536;37.664;2023-03-30T10:34:52;99190.09;;;6.83;62.74
35694;BME280;21812;55.536;37.664;2023-03-30T10:39:51;99207.75;;;6.53;63.61
35694;BME280;21812;55.536;37.664;2023-03-30T10:42:21;99229.03;;;6.68;64.06
35694;BME280;21812;55.536;37.664;2023-03-30T10:44:51;99226.13;;;6.54;64.28
35694;BME280;21812;55.536;37.664;2023-03-30T10:56:27;99234.28;;;6.76;62.40
35694;BME280;21812;55.536;37.664;2023-03-30T11:07:37;99208.75;;;6.52;61.80
35694;BME280;21812;55.536;37.664;2023-03-30T11:12:48;99232.06;;;6.64;61.33
35694;BME280;21812;55.536;37.664;2023-03-30T11:15:17;99232.09;;;6.56;61.46
35694;BME280;21812;55.536;37.664;2023-03-30T11:21:07;99222.25;;;6.65;61.47
35694;BME280;21812;55.536;37.664;2023-03-30T11:23:59;99186.25;;;6.48;62.08
35694;BME280;21812;55.536;37.664;2023-03-30T11:26:36;99222.13;;;6.58;61.53
35694;BME280;21812;55.536;37.664;2023-03-30T11:34:58;99227.41;;;6.67;61.89
35694;BME280;21812;55.536;37.664;2023-03-30T11:40:33;99234.94;;;6.78;61.44
35694;BME280;21812;55.536;37.664;2023-03-30T11:43:02;99235.47;;;6.73;61.10
35694;BME280;21812;55.536;37.664;2023-03-30T11:54:02;99186.28;;;6.39;60.58
35694;BME280;21812;55.536;37.664;2023-03-30T11:57:00;99197.75;;;6.40;60.90
35694;BME280;21812;55.536;37.664;2023-03-30T11:59:31;99223.19;;;6.49;60.20
35694;BME280;21812;55.536;37.664;2023-03-30T12:04:46;99223.91;;;6.66;59.91
35694;BME280;21812;55.536;37.664;2023-03-30T12:12:47;99220.47;;;7.03;58.01
35694;BME280;21812;55.536;37.664;2023-03-30T12:21:30;99230.63;;;7.00;57.49
35694;BME280;21812;55.536;37.664;2023-03-30T12:26:41;99220.56;;;6.18;59.80
35694;BME280;21812;55.536;37.664;2023-03-30T12:29:12;99225.38;;;6.14;60.03
35694;BME280;21812;55.536;37.664;2023-03-30T12:34:17;99218.69;;;5.95;60.44
35694;BME280;21812;55.536;37.664;2023-03-30T12:36:48;99219.50;;;5.87;60.70
35694;BME280;21812;55.536;37.664;2023-03-30T12:42:24;99234.06;;;5.92;60.87
35694;BME280;21812;55.536;37.664;2023-03-30T12:45:14;99234.75;;;5.85;60.85
35694;BME280;21812;55.536;37.664;2023-03-30T12:53:39;99227.53;;;5.63;63.03
35694;BME280;21812;55.536;37.664;2023-03-30T12:59:04;99234.63;;;5.79;62.14
35694;BME280;21812;55.536;37.664;2023-03-30T13:01:49;99225.28;;;5.91;61.92
35694;BME280;21812;55.536;37.664;2023-03-30T13:04:25;99222.47;;;5.84;62.23
35694;BME280;21812;55.536;37.664;2023-03-30T13:07:00;99243.72;;;5.76;61.96
35694;BME280;21812;55.536;37.664;2023-03-30T13:19:20;99246.75;;;5.57;62.77
35694;BME280;21812;55.536;37.664;2023-03-30T13:29:39;99237.53;;;5.36;62.00
35694;BME280;21812;55.536;37.664;2023-03-30T13:35:13;99216.00;;;5.47;61.89
35694;BME280;21812;55.536;37.664;2023-03-30T13:46:34;99162.78;;;5.18;59.96
35694;BME280;21812;55.536;37.664;2023-03-30T13:52:02;99209.03;;;5.55;60.48
35694;BME280;21812;55.536;37.664;2023-03-30T13:54:32;99231.09;;;5.31;60.82
35694;BME280;21812;55.536;37.664;2023-03-30T13:59:31;99226.31;;;5.09;61.82
35694;BME280;21812;55.536;37.664;2023-03-30T14:02:00;99198.38;;;4.82;62.15
35694;BME280;21812;55.536;37.664;2023-03-30T14:04:32;99234.25;;;5.01;62.46
35694;BME280;21812;55.536;37.664;2023-03-30T14:07:04;99234.75;;;5.13;63.13
35694;BME280;21812;55.536;37.664;2023-03-30T14:09:38;99248.47;;;5.00;62.82
35694;BME280;21812;55.536;37.664;2023-03-30T14:12:04;99234.44;;;4.92;62.76
35694;BME280;21812;55.536;37.664;2023-03-30T14:16:59;99231.13;;;4.89;63.03
35694;BME280;21812;55.536;37.664;2023-03-30T14:19:34;99240.69;;;4.99;62.66
35694;BME280;21812;55.536;37.664;2023-03-30T14:22:20;99244.00;;;4.84;62.27
35694;BME280;21812;55.536;37.664;2023-03-30T14:25:03;99246.16;;;4.81;62.63
35694;BME280;21812;55.536;37.664;2023-03-30T14:27:37;99254.09;;;4.81;62.66
35694;BME280;21812;55.536;37.664;2023-03-30T14:30:23;99255.44;;;5.01;61.79
35694;BME280;21812;55.536;37.664;2023-03-30T14:33:24;99256.09;;;5.03;61.58
35694;BME280;21812;55.536;37.664;2023-03-30T14:35:54;99254.75;;;4.91;61.58
35694;BME280;21812;55.536;37.664;2023-03-30T14:40:54;99256.41;;;4.92;61.58
35694;BME280;21812;55.536;37.664;2023-03-30T14:43:27;99253.78;;;4.84;61.80
35694;BME280;21812;55.536;37.664;2023-03-30T14:45:56;99225.47;;;4.60;61.86
35694;BME280;21812;55.536;37.664;2023-03-30T14:48:34;99232.56;;;4.51;61.91
35694;BME280;21812;55.536;37.664;2023-03-30T14:51:03;99282.34;;;4.72;61.87
35694;BME280;21812;55.536;37.664;2023-03-30T14:53:34;99266.81;;;4.69;61.87
35694;BME280;21812;55.536;37.664;2023-03-30T14:56:01;99267.94;;;4.58;61.89
35694;BME280;21812;55.536;37.664;2023-03-30T14:58:29;99256.19;;;4.53;62.05
35694;BME280;21812;55.536;37.664;2023-03-30T15:01:01;99230.22;;;4.40;62.32
35694;BME280;21812;55.536;37.664;2023-03-30T15:03:32;99266.63;;;4.54;61.75
35694;BME280;21812;55.536;37.664;2023-03-30T15:06:02;99263.09;;;4.37;62.54
35694;BME280;21812;55.536;37.664;2023-03-30T15:08:34;99270.81;;;4.22;62.91
35694;BME280;21812;55.536;37.664;2023-03-30T15:11:30;99259.94;;;4.25;64.11
35694;BME280;21812;55.536;37.664;2023-03-30T15:13:55;99283.16;;;4.64;63.54
35694;BME280;21812;55.536;37.664;2023-03-30T15:16:31;99279.53;;;4.65;65.93
35694;BME280;21812;55.536;37.664;2023-03-30T15:19:22;99281.31;;;4.48;63.30
35694;BME280;21812;55.536;37.664;2023-03-30T15:21:50;99256.78;;;4.14;64.43
35694;BME280;21812;55.536;37.664;2023-03-30T15:24:21;99282.03;;;4.16;63.80
35694;BME280;21812;55.536;37.664;2023-03-30T15:26:50;99281.66;;;4.03;64.02
35694;BME280;21812;55.536;37.664;2023-03-30T15:29:17;99293.91;;;4.04;65.50
35694;BME280;21812;55.536;37.664;2023-03-30T15:31:43;99283.66;;;4.09;64.63
35694;BME280;21812;55.536;37.664;2023-03-30T15:34:16;99288.72;;;4.28;69.29
35694;BME280;21812;55.536;37.664;2023-03-30T15:36:42;99277.41;;;4.18;65.44
35694;BME280;21812;55.536;37.664;2023-03-30T15:39:37;99284.41;;;4.27;64.67
35694;BME280;21812;55.536;37.664;2023-03-30T15:42:12;99293.56;;;4.07;64.59
35694;BME280;21812;55.536;37.664;2023-03-30T15:44:40;99257.97;;;3.85;64.66
35694;BME280;21812;55.536;37.664;2023-03-30T15:47:12;99289.22;;;3.98;65.01
35694;BME280;21812;55.536;37.664;2023-03-30T15:49:45;99286.25;;;3.92;65.68
35694;BME280;21812;55.536;37.664;2023-03-30T15:52:30;99225.53;;;3.66;65.56
35694;BME280;21812;55.536;37.664;2023-03-30T15:55:07;99247.88;;;3.80;65.66
35694;BME280;21812;55.536;37.664;2023-03-30T15:57:41;99213.13;;;3.59;65.85
35694;BME280;21812;55.536;37.664;2023-03-30T16:00:14;99287.47;;;4.06;65.60
35694;BME280;21812;55.536;37.664;2023-03-30T16:02:54;99271.06;;;3.95;65.06
35694;BME280;21812;55.536;37.664;2023-03-30T16:05:28;99265.13;;;3.92;64.80
35694;BME280;21812;55.536;37.664;2023-03-30T16:07:55;99296.34;;;4.05;64.69
35694;BME280;21812;55.536;37.664;2023-03-30T16:10:23;99302.75;;;4.37;64.82
35694;BME280;21812;55.536;37.664;2023-03-30T16:12:52;99294.25;;;4.60;65.49
35694;BME280;21812;55.536;37.664;2023-03-30T16:15:24;99267.75;;;4.43;62.95
35694;BME280;21812;55.536;37.664;2023-03-30T16:17:51;99299.16;;;4.46;62.88
35694;BME280;21812;55.536;37.664;2023-03-30T16:20:20;99301.13;;;4.36;63.63
35694;BME280;21812;55.536;37.664;2023-03-30T16:22:46;99302.88;;;4.19;63.06
35694;BME280;21812;55.536;37.664;2023-03-30T16:25:17;99284.31;;;3.77;63.75
35694;BME280;21812;55.536;37.664;2023-03-30T16:27:44;99312.38;;;3.69;64.19